createdAt,value
2023-09-13T00:01:51.530Z,99422.22
2023-09-13T00:04:21.936Z,99424.69
2023-09-13T00:06:49.912Z,99430.81
2023-09-13T00:09:17.482Z,99432.78
2023-09-13T00:11:45.111Z,99428.28
2023-09-13T00:14:14.036Z,99426.84
2023-09-13T00:16:41.676Z,99429.28
2023-09-13T00:19:09.623Z,99435.16
2023-09-13T00:21:41.590Z,99426.84
2023-09-13T00:24:12.142Z,99428.84
2023-09-13T00:26:39.781Z,99427.63
2023-09-13T00:29:07.346Z,99429.50
2023-09-13T00:31:36.460Z,99428.00
2023-09-13T00:34:04.229Z,99436.63
2023-09-13T00:36:32.230Z,99435.22
2023-09-13T00:38:59.795Z,99437.84
2023-09-13T00:41:27.369Z,99442.78
2023-09-13T00:43:54.933Z,99445.97
2023-09-13T00:46:22.938Z,99453.97
2023-09-13T00:48:51.874Z,99456.63
2023-09-13T00:51:19.891Z,99461.19
2023-09-13T00:53:48.908Z,99452.66
2023-09-13T00:56:18.619Z,99457.31
2023-09-13T00:58:48.645Z,99458.38
2023-09-13T01:01:17.356Z,99455.66
2023-09-13T01:03:46.125Z,99459.94
2023-09-13T01:06:15.969Z,99459.56
2023-09-13T01:08:44.286Z,99456.31
2023-09-13T01:11:12.555Z,99457.47
2023-09-13T01:13:40.227Z,99461.03
2023-09-13T01:16:15.536Z,99464.59
2023-09-13T01:18:49.312Z,99449.41
2023-09-13T01:21:42.568Z,99448.47
2023-09-13T01:24:27.984Z,99447.53
2023-09-13T01:27:08.870Z,99449.53
2023-09-13T01:29:39.088Z,99448.31
2023-09-13T01:32:06.887Z,99458.47
2023-09-13T01:34:34.454Z,99450.81
2023-09-13T01:37:02.064Z,99456.63
2023-09-13T01:39:30.284Z,99450.28
2023-09-13T01:42:02.591Z,99445.16
2023-09-13T01:44:30.850Z,99457.56
2023-09-13T01:47:02.805Z,99459.19
2023-09-13T01:49:31.421Z,99452.72
2023-09-13T01:51:59.436Z,99463.25
2023-09-13T01:54:27.067Z,99462.19
2023-09-13T01:56:54.615Z,99468.03
2023-09-13T01:59:22.214Z,99469.84
2023-09-13T02:01:49.930Z,99470.41
2023-09-13T02:04:18.936Z,99479.16
2023-09-13T02:06:46.777Z,99471.66
2023-09-13T02:09:14.404Z,99475.81
2023-09-13T02:11:42.003Z,99480.78
2023-09-13T02:14:09.681Z,99474.75
2023-09-13T02:16:37.322Z,99476.22
2023-09-13T02:19:05.762Z,99478.06
2023-09-13T02:21:34.654Z,99473.28
2023-09-13T02:24:02.386Z,99469.03
2023-09-13T02:26:30.012Z,99471.72
2023-09-13T02:28:57.580Z,99470.03
2023-09-13T02:31:26.881Z,99475.78
2023-09-13T02:33:54.744Z,99470.25
2023-09-13T02:36:23.197Z,99484.88
2023-09-13T02:38:52.217Z,99484.88
2023-09-13T02:41:19.828Z,99480.41
2023-09-13T02:43:47.677Z,99481.19
2023-09-13T02:46:15.639Z,99486.75
2023-09-13T02:48:43.447Z,99499.13
2023-09-13T02:51:14.007Z,99494.41
2023-09-13T02:53:41.743Z,99489.41
2023-09-13T02:56:11.278Z,99485.19
2023-09-13T02:58:39.263Z,99491.78
2023-09-13T03:01:11.636Z,99487.91
2023-09-13T03:03:39.888Z,99494.81
2023-09-13T03:06:11.224Z,99488.66
2023-09-13T03:08:38.799Z,99490.31
2023-09-13T03:11:15.073Z,99487.03
2023-09-13T03:13:43.269Z,99496.56
2023-09-13T03:16:15.219Z,99486.50
2023-09-13T03:18:43.472Z,99490.31
2023-09-13T03:21:12.457Z,99493.13
2023-09-13T03:23:41.200Z,99491.78
2023-09-13T03:26:15.815Z,99482.66
2023-09-13T03:28:45.213Z,99492.34
2023-09-13T03:31:14.006Z,99496.47
2023-09-13T03:33:42.911Z,99484.81
2023-09-13T03:36:12.223Z,99489.81
2023-09-13T03:38:41.596Z,99492.06
2023-09-13T03:41:10.007Z,99505.13
2023-09-13T03:43:39.016Z,99492.22
2023-09-13T03:46:08.240Z,99503.25
2023-09-13T03:48:37.914Z,99504.16
2023-09-13T03:51:05.542Z,99503.31
2023-09-13T03:53:33.230Z,99510.66
2023-09-13T03:56:01.899Z,99513.13
2023-09-13T03:58:30.086Z,99512.56
2023-09-13T04:01:00.076Z,99511.13
2023-09-13T04:03:28.476Z,99503.00
2023-09-13T04:05:56.230Z,99504.41
2023-09-13T04:08:23.963Z,99500.44
2023-09-13T04:10:52.006Z,99497.25
2023-09-13T04:13:19.639Z,99494.88
2023-09-13T04:15:47.327Z,99504.56
2023-09-13T04:18:16.373Z,99502.25
2023-09-13T04:20:44.674Z,99506.84
2023-09-13T04:23:12.259Z,99492.41
2023-09-13T04:25:39.935Z,99503.25
2023-09-13T04:28:07.909Z,99509.72
2023-09-13T04:30:35.685Z,99512.03
2023-09-13T04:33:05.754Z,99504.47
2023-09-13T04:35:34.949Z,99503.38
2023-09-13T04:38:02.516Z,99510.00
2023-09-13T04:40:30.183Z,99511.31
2023-09-13T04:43:24.561Z,99513.03
2023-09-13T04:45:53.407Z,99517.44
2023-09-13T04:48:20.994Z,99503.75
2023-09-13T04:50:49.892Z,99503.44
2023-09-13T04:53:17.459Z,99502.59
2023-09-13T04:55:46.812Z,99511.47
2023-09-13T04:58:14.384Z,99514.81
2023-09-13T05:00:42.004Z,99514.38
2023-09-13T05:03:09.748Z,99512.97
2023-09-13T05:05:37.393Z,99522.00
2023-09-13T05:08:07.121Z,99520.28
2023-09-13T05:10:34.739Z,99523.22
2023-09-13T05:13:02.571Z,99527.38
2023-09-13T05:15:30.154Z,99523.41
2023-09-13T05:17:57.741Z,99524.53
2023-09-13T05:20:27.755Z,99531.78
2023-09-13T05:22:55.342Z,99529.66
2023-09-13T05:25:24.367Z,99540.19
2023-09-13T05:27:51.992Z,99528.50
2023-09-13T05:30:19.621Z,99538.06
2023-09-13T05:32:47.430Z,99538.91
2023-09-13T05:35:17.649Z,99543.47
2023-09-13T05:37:45.247Z,99547.59
2023-09-13T05:40:13.647Z,99547.28
2023-09-13T05:42:42.624Z,99559.00
2023-09-13T05:45:11.210Z,99560.84
2023-09-13T05:47:38.789Z,99551.84
2023-09-13T05:50:07.651Z,99562.13
2023-09-13T05:52:35.315Z,99564.97
2023-09-13T05:55:02.939Z,99568.69
2023-09-13T05:57:30.534Z,99567.69
2023-09-13T05:59:59.440Z,99575.81
2023-09-13T06:02:27.154Z,99567.81
2023-09-13T06:04:54.764Z,99575.25
2023-09-13T06:07:22.429Z,99584.19
2023-09-13T06:09:50.044Z,99574.25
2023-09-13T06:12:17.639Z,99581.38
2023-09-13T06:14:46.674Z,99588.78
2023-09-13T06:17:15.568Z,99590.63
2023-09-13T06:19:43.371Z,99585.78
2023-09-13T06:22:10.992Z,99600.72
2023-09-13T06:24:38.658Z,99603.09
2023-09-13T06:27:06.701Z,99597.16
2023-09-13T06:29:34.290Z,99604.44
2023-09-13T06:32:06.227Z,99601.00
2023-09-13T06:34:35.927Z,99609.66
2023-09-13T06:37:05.352Z,99611.22
2023-09-13T06:39:36.051Z,99606.38
2023-09-13T06:42:22.145Z,99621.22
2023-09-13T06:44:52.942Z,99617.94
2023-09-13T06:47:22.860Z,99622.47
2023-09-13T06:49:52.465Z,99617.94
2023-09-13T06:52:22.298Z,99620.50
2023-09-13T06:54:52.621Z,99628.94
2023-09-13T06:57:23.433Z,99632.06
2023-09-13T06:59:57.020Z,99640.44
2023-09-13T07:02:33.029Z,99637.63
2023-09-13T07:07:37.400Z,99644.75
2023-09-13T07:10:05.467Z,99650.69
2023-09-13T07:12:33.101Z,99652.09
2023-09-13T07:15:00.696Z,99655.28
2023-09-13T07:17:28.467Z,99659.66
2023-09-13T07:19:56.901Z,99655.28
2023-09-13T07:22:25.912Z,99658.97
2023-09-13T07:24:54.016Z,99664.81
2023-09-13T07:27:21.717Z,99660.81
2023-09-13T07:29:50.855Z,99663.22
2023-09-13T07:32:19.209Z,99660.84
2023-09-13T07:34:46.801Z,99658.13
2023-09-13T07:37:14.526Z,99660.25
2023-09-13T07:39:43.650Z,99665.38
2023-09-13T07:42:12.378Z,99660.66
2023-09-13T07:44:39.938Z,99670.06
2023-09-13T07:47:07.953Z,99667.25
2023-09-13T07:49:35.641Z,99679.91
2023-09-13T07:52:03.507Z,99674.38
2023-09-13T07:54:31.086Z,99688.00
2023-09-13T07:56:59.998Z,99686.75
2023-09-13T07:59:28.372Z,99692.28
2023-09-13T08:01:56.008Z,99695.13
2023-09-13T08:04:23.638Z,99693.16
2023-09-13T08:06:51.355Z,99702.69
2023-09-13T08:09:18.914Z,99709.09
2023-09-13T08:11:48.186Z,99717.53
2023-09-13T08:14:17.204Z,99712.78
2023-09-13T08:16:44.913Z,99715.06
2023-09-13T08:19:12.715Z,99724.91
2023-09-13T08:21:42.496Z,99730.75
2023-09-13T08:24:10.152Z,99730.63
2023-09-13T08:26:37.719Z,99731.78
2023-09-13T08:29:05.408Z,99735.47
2023-09-13T08:31:34.422Z,99737.47
2023-09-13T08:34:02.034Z,99744.03
2023-09-13T08:36:29.712Z,99745.59
2023-09-13T08:38:57.675Z,99740.31
2023-09-13T08:41:25.379Z,99753.28
2023-09-13T08:43:54.458Z,99761.69
2023-09-13T08:46:24.952Z,99760.97
2023-09-13T08:48:56.681Z,99761.84
2023-09-13T08:51:24.632Z,99768.38
2023-09-13T08:53:53.174Z,99759.53
2023-09-13T08:56:23.432Z,99769.66
2023-09-13T08:58:53.272Z,99768.66
2023-09-13T09:01:24.493Z,99775.22
2023-09-13T09:03:52.533Z,99774.06
2023-09-13T09:06:23.116Z,99779.66
2023-09-13T09:08:52.829Z,99785.50
2023-09-13T09:11:23.711Z,99785.50
2023-09-13T09:13:54.069Z,99784.63
2023-09-13T09:16:22.946Z,99791.63
2023-09-13T09:18:53.714Z,99793.19
2023-09-13T09:21:23.024Z,99793.19
2023-09-13T09:23:51.729Z,99779.75
2023-09-13T09:26:19.319Z,99776.50
2023-09-13T09:28:49.082Z,99773.09
2023-09-13T09:31:20.750Z,99776.63
2023-09-13T09:33:48.529Z,99784.03
2023-09-13T09:36:17.933Z,99790.03
2023-09-13T09:38:47.320Z,99783.91
2023-09-13T09:41:14.928Z,99783.31
2023-09-13T09:43:45.445Z,99783.59
2023-09-13T09:46:13.225Z,99777.44
2023-09-13T09:48:41.072Z,99782.16
2023-09-13T09:51:08.692Z,99787.97
2023-09-13T09:53:37.137Z,99791.97
2023-09-13T09:56:06.740Z,99782.59
2023-09-13T09:58:35.539Z,99787.31
2023-09-13T10:01:05.166Z,99781.59
2023-09-13T10:03:34.996Z,99788.03
2023-09-13T10:06:05.041Z,99785.00
2023-09-13T10:08:39.687Z,99776.94
2023-09-13T10:11:09.525Z,99784.34
2023-09-13T10:13:38.486Z,99790.19
2023-09-13T10:16:08.950Z,99788.94
2023-09-13T10:18:40.566Z,99797.94
2023-09-13T10:21:10.773Z,99800.16
2023-09-13T10:23:42.572Z,99799.91
2023-09-13T10:26:14.480Z,99796.22
2023-09-13T10:28:46.012Z,99796.66
2023-09-13T10:31:19.243Z,99804.19
2023-09-13T10:33:52.664Z,99809.59
2023-09-13T10:36:29.678Z,99811.72
2023-09-13T10:39:06.644Z,99816.03
2023-09-13T10:41:41.141Z,99823.38
2023-09-13T10:44:10.366Z,99830.84
2023-09-13T10:46:38.559Z,99830.84
2023-09-13T10:49:06.295Z,99842.94
2023-09-13T10:51:34.690Z,99849.94
2023-09-13T10:54:03.548Z,99857.25
2023-09-13T10:56:32.037Z,99853.41
2023-09-13T10:59:02.689Z,99855.34
2023-09-13T11:01:32.433Z,99868.13
2023-09-13T11:04:00.834Z,99872.94
2023-09-13T11:06:29.759Z,99870.63
2023-09-13T11:09:11.854Z,99879.56
2023-09-13T11:11:39.436Z,99885.81
2023-09-13T11:14:12.775Z,99880.88
2023-09-13T11:16:43.576Z,99901.25
2023-09-13T11:19:12.600Z,99907.41
2023-09-13T11:21:52.385Z,99920.94
2023-09-13T11:25:00.832Z,99924.91
2023-09-13T11:27:30.614Z,99928.13
2023-09-13T11:30:01.042Z,99940.75
2023-09-13T11:32:32.014Z,99940.56
2023-09-13T11:35:00.997Z,99946.38
2023-09-13T11:37:29.255Z,99951.16
2023-09-13T11:39:57.497Z,99948.13
2023-09-13T11:42:35.516Z,99947.59
2023-09-13T11:45:19.560Z,99959.28
2023-09-13T11:47:57.358Z,99955.84
2023-09-13T11:50:41.933Z,99955.13
2023-09-13T11:53:17.811Z,99957.34
2023-09-13T11:56:00.714Z,99956.84
2023-09-13T11:58:38.522Z,99957.47
2023-09-13T12:01:13.137Z,99965.44
2023-09-13T12:08:43.319Z,99970.75
2023-09-13T12:11:16.200Z,99963.28
2023-09-13T12:14:06.378Z,99968.22
2023-09-13T12:16:34.437Z,99978.53
2023-09-13T12:19:02.548Z,99990.72
2023-09-13T12:21:30.349Z,99998.84
2023-09-13T12:23:58.053Z,100004.78
2023-09-13T12:26:26.911Z,100009.53
2023-09-13T12:28:55.299Z,100018.25
2023-09-13T12:31:22.950Z,100018.81
2023-09-13T12:33:53.425Z,100020.97
2023-09-13T12:36:21.626Z,100029.53
2023-09-13T12:38:50.483Z,100034.84
2023-09-13T12:41:19.761Z,100028.50
2023-09-13T12:43:49.872Z,100029.31
2023-09-13T12:46:19.681Z,100029.44
2023-09-13T12:48:48.583Z,100032.75
2023-09-13T12:51:23.607Z,100023.28
2023-09-13T12:53:53.104Z,100031.34
2023-09-13T12:56:20.833Z,100042.00
2023-09-13T12:58:49.544Z,100041.25
2023-09-13T13:01:17.540Z,100050.59
2023-09-13T13:03:59.994Z,100050.47
2023-09-13T13:06:29.431Z,100060.13
2023-09-13T13:09:06.486Z,100053.72
2023-09-13T13:11:35.512Z,100049.19
2023-09-13T13:14:03.660Z,100055.38
2023-09-13T13:16:43.608Z,100051.38
2023-09-13T13:22:08.807Z,100067.84
2023-09-13T13:24:39.538Z,100060.34
2023-09-13T13:27:07.270Z,100065.19
2023-09-13T13:29:36.470Z,100069.69
2023-09-13T13:32:05.211Z,100067.69
2023-09-13T13:34:33.494Z,100077.28
2023-09-13T13:37:02.526Z,100076.31
2023-09-13T13:39:30.163Z,100077.91
2023-09-13T13:41:57.820Z,100084.91
2023-09-13T13:44:25.522Z,100080.69
2023-09-13T13:46:53.127Z,100092.25
2023-09-13T13:49:20.756Z,100084.75
2023-09-13T13:51:51.598Z,100087.84
2023-09-13T13:54:21.368Z,100105.16
2023-09-13T13:56:49.794Z,100099.16
2023-09-13T13:59:18.656Z,100090.00
2023-09-13T14:01:46.400Z,100097.06
2023-09-13T14:04:15.446Z,100101.22
2023-09-13T14:06:46.849Z,100090.75
2023-09-13T14:09:17.579Z,100098.75
2023-09-13T14:11:47.412Z,100101.50
2023-09-13T14:14:18.386Z,100103.31
2023-09-13T14:16:46.127Z,100107.13
2023-09-13T14:19:13.944Z,100116.38
2023-09-13T14:21:41.701Z,100118.19
2023-09-13T14:24:10.065Z,100125.56
2023-09-13T14:26:37.613Z,100127.78
2023-09-13T14:29:08.438Z,100135.75
2023-09-13T14:31:38.587Z,100132.22
2023-09-13T14:34:07.727Z,100128.50
2023-09-13T14:36:35.671Z,100132.69
2023-09-13T14:39:03.916Z,100139.31
2023-09-13T14:41:31.537Z,100130.63
2023-09-13T14:43:59.457Z,100130.09
2023-09-13T14:46:28.767Z,100137.31
2023-09-13T14:48:56.510Z,100137.22
2023-09-13T14:51:24.222Z,100133.16
2023-09-13T14:53:51.909Z,100127.78
2023-09-13T14:56:19.450Z,100136.00
2023-09-13T14:58:47.258Z,100131.69
2023-09-13T15:01:15.133Z,100131.97
2023-09-13T15:03:44.647Z,100135.16
2023-09-13T15:06:16.778Z,100146.06
2023-09-13T15:08:45.152Z,100152.06
2023-09-13T15:11:13.010Z,100151.59
2023-09-13T15:13:40.628Z,100153.00
2023-09-13T15:16:08.779Z,100152.28
2023-09-13T15:18:36.514Z,100160.03
2023-09-13T15:21:06.334Z,100162.38
2023-09-13T15:23:33.936Z,100162.88
2023-09-13T15:26:01.641Z,100162.09
2023-09-13T15:28:30.815Z,100161.91
2023-09-13T15:30:58.670Z,100159.59
2023-09-13T15:33:27.038Z,100168.28
2023-09-13T15:35:54.742Z,100156.88
2023-09-13T15:38:23.700Z,100162.50
2023-09-13T15:40:51.250Z,100150.09
2023-09-13T15:43:20.882Z,100151.16
2023-09-13T15:45:48.502Z,100151.00
2023-09-13T15:48:16.278Z,100158.91
2023-09-13T15:50:43.934Z,100154.19
2023-09-13T15:53:11.553Z,100151.81
2023-09-13T15:55:40.495Z,100153.75
2023-09-13T15:58:08.106Z,100161.47
2023-09-13T16:00:35.877Z,100160.91
2023-09-13T16:03:03.838Z,100173.31
2023-09-13T16:05:31.645Z,100175.56
2023-09-13T16:07:59.260Z,100172.69
2023-09-13T16:10:27.722Z,100171.06
2023-09-13T16:12:56.716Z,100169.50
2023-09-13T16:15:24.734Z,100172.69
2023-09-13T16:17:52.406Z,100172.38
2023-09-13T16:20:20.315Z,100170.47
2023-09-13T16:22:48.928Z,100175.69
2023-09-13T16:25:17.762Z,100172.47
2023-09-13T16:27:45.698Z,100171.38
2023-09-13T16:30:17.324Z,100170.41
2023-09-13T16:32:46.344Z,100173.69
2023-09-13T16:35:14.079Z,100171.44
2023-09-13T16:37:41.838Z,100182.91
2023-09-13T16:40:10.402Z,100171.78
2023-09-13T16:42:38.577Z,100176.94
2023-09-13T16:45:07.272Z,100179.97
2023-09-13T16:47:36.168Z,100184.69
2023-09-13T16:50:04.196Z,100179.53
2023-09-13T16:52:31.809Z,100174.50
2023-09-13T16:54:59.453Z,100184.66
2023-09-13T16:57:27.213Z,100186.34
2023-09-13T16:59:54.989Z,100189.63
2023-09-13T17:02:22.588Z,100192.97
2023-09-13T17:04:51.553Z,100190.66
2023-09-13T17:07:19.177Z,100196.72
2023-09-13T17:09:47.213Z,100199.00
2023-09-13T17:12:14.824Z,100198.16
2023-09-13T17:14:43.107Z,100199.91
2023-09-13T17:17:11.467Z,100201.22
2023-09-13T17:19:39.054Z,100213.59
2023-09-13T17:22:07.982Z,100209.84
2023-09-13T17:24:35.585Z,100218.16
2023-09-13T17:27:09.503Z,100217.34
2023-09-13T17:29:37.892Z,100219.41
2023-09-13T17:32:08.445Z,100227.47
2023-09-13T17:34:36.615Z,100221.22
2023-09-13T17:37:04.587Z,100219.59
2023-09-13T17:39:33.631Z,100227.75
2023-09-13T17:42:01.323Z,100238.94
2023-09-13T17:44:28.868Z,100246.38
2023-09-13T17:46:56.560Z,100247.28
2023-09-13T17:49:24.403Z,100254.94
2023-09-13T17:51:52.087Z,100252.09
2023-09-13T17:54:19.927Z,100257.50
2023-09-13T17:56:48.893Z,100256.03
2023-09-13T17:59:16.450Z,100259.69
2023-09-13T18:01:46.639Z,100255.59
2023-09-13T18:04:14.465Z,100260.25
2023-09-13T18:06:42.345Z,100262.34
2023-09-13T18:09:09.960Z,100265.50
2023-09-13T18:11:37.573Z,100267.00
2023-09-13T18:14:06.831Z,100268.59
2023-09-13T18:16:34.569Z,100277.78
2023-09-13T18:19:02.278Z,100288.63
2023-09-13T18:21:29.985Z,100282.75
2023-09-13T18:23:57.642Z,100283.19
2023-09-13T18:26:25.209Z,100289.28
2023-09-13T18:28:55.385Z,100288.16
2023-09-13T18:31:24.400Z,100290.00
2023-09-13T18:33:53.524Z,100301.19
2023-09-13T18:36:21.211Z,100298.81
2023-09-13T18:38:51.048Z,100309.16
2023-09-13T18:41:18.696Z,100303.38
2023-09-13T18:43:46.242Z,100301.34
2023-09-13T18:46:16.013Z,100301.78
2023-09-13T18:48:45.483Z,100307.66
2023-09-13T18:51:13.286Z,100307.66
2023-09-13T18:53:40.864Z,100301.97
2023-09-13T18:56:08.592Z,100298.50
2023-09-13T18:58:36.155Z,100298.13
2023-09-13T19:01:04.710Z,100303.06
2023-09-13T19:03:33.956Z,100309.94
2023-09-13T19:06:04.742Z,100321.25
2023-09-13T19:08:33.197Z,100319.31
2023-09-13T19:11:01.619Z,100326.66
2023-09-13T19:13:30.530Z,100328.84
2023-09-13T19:15:59.468Z,100331.44
2023-09-13T19:18:28.338Z,100332.56
2023-09-13T19:20:56.140Z,100334.19
2023-09-13T19:23:25.662Z,100334.69
2023-09-13T19:25:53.988Z,100338.66
2023-09-13T19:28:21.918Z,100332.78
2023-09-13T19:30:50.978Z,100335.59
2023-09-13T19:33:22.309Z,100337.09
2023-09-13T19:35:49.982Z,100352.28
2023-09-13T19:38:29.369Z,100353.81
2023-09-13T19:40:59.715Z,100355.66
2023-09-13T19:43:28.887Z,100358.34
2023-09-13T19:45:58.410Z,100358.53
2023-09-13T19:48:26.571Z,100367.38
2023-09-13T19:50:57.138Z,100357.81
2023-09-13T19:53:25.221Z,100369.31
2023-09-13T19:55:53.074Z,100372.16
2023-09-13T19:58:22.063Z,100371.72
2023-09-13T20:00:55.107Z,100380.47
2023-09-13T20:03:23.165Z,100379.28
2023-09-13T20:05:50.821Z,100384.72
2023-09-13T20:08:18.361Z,100381.81
2023-09-13T20:10:52.927Z,100381.91
2023-09-13T20:13:22.191Z,100379.88
2023-09-13T20:15:49.873Z,100380.56
2023-09-13T20:18:17.541Z,100374.63
2023-09-13T20:20:45.173Z,100377.72
2023-09-13T20:23:12.736Z,100373.47
2023-09-13T20:25:40.316Z,100380.09
2023-09-13T20:28:07.899Z,100374.91
2023-09-13T20:30:36.821Z,100383.06
2023-09-13T20:33:05.839Z,100373.09
2023-09-13T20:35:33.486Z,100377.81
2023-09-13T20:38:01.077Z,100386.25
2023-09-13T20:40:28.650Z,100389.50
2023-09-13T20:42:56.366Z,100391.31
2023-09-13T20:45:24.125Z,100389.56
2023-09-13T20:47:53.144Z,100393.53
2023-09-13T20:50:20.718Z,100396.13
2023-09-13T20:52:48.270Z,100394.66
2023-09-13T20:55:15.961Z,100393.88
2023-09-13T20:57:43.551Z,100392.28
2023-09-13T21:00:11.772Z,100398.44
2023-09-13T21:02:39.369Z,100400.81
2023-09-13T21:05:09.412Z,100398.88
2023-09-13T21:07:37.007Z,100397.16
2023-09-13T21:10:05.039Z,100401.16
2023-09-13T21:12:32.638Z,100401.59
2023-09-13T21:15:00.225Z,100401.03
2023-09-13T21:17:27.820Z,100401.34
2023-09-13T21:19:55.480Z,100409.78
2023-09-13T21:22:24.438Z,100405.59
2023-09-13T21:24:52.026Z,100405.38
2023-09-13T21:27:19.592Z,100402.16
2023-09-13T21:29:47.162Z,100403.72
2023-09-13T21:32:14.738Z,100398.91
2023-09-13T21:34:54.911Z,100403.53
2023-09-13T21:37:30.309Z,100398.78
2023-09-13T21:40:00.947Z,100398.56
2023-09-13T21:42:28.675Z,100405.19
2023-09-13T21:44:56.965Z,100400.94
2023-09-13T21:47:24.565Z,100400.44
2023-09-13T21:49:52.280Z,100403.13
2023-09-13T21:52:19.864Z,100393.13
2023-09-13T21:54:50.454Z,100400.22
2023-09-13T21:57:19.776Z,100391.91
2023-09-13T21:59:47.648Z,100398.06
2023-09-13T22:02:15.498Z,100397.19
2023-09-13T22:04:49.163Z,100402.38
2023-09-13T22:07:16.801Z,100401.84
2023-09-13T22:09:44.600Z,100404.44
2023-09-13T22:12:13.653Z,100400.53
2023-09-13T22:14:41.375Z,100398.72
2023-09-13T22:17:08.044Z,100398.94
2023-09-13T22:19:35.711Z,100390.41
2023-09-13T22:22:03.460Z,100399.03
2023-09-13T22:24:31.170Z,100394.56
2023-09-13T22:26:58.839Z,100409.34
2023-09-13T22:29:27.871Z,100396.81
2023-09-13T22:31:55.656Z,100397.78
2023-09-13T22:34:23.511Z,100403.97
2023-09-13T22:36:51.258Z,100409.72
2023-09-13T22:39:18.989Z,100400.34
2023-09-13T22:41:46.704Z,100407.03
2023-09-13T22:44:14.412Z,100406.97
2023-09-13T22:46:43.464Z,100407.66
2023-09-13T22:49:11.310Z,100415.91
2023-09-13T22:51:39.098Z,100416.97
2023-09-13T22:54:06.878Z,100416.75
2023-09-13T22:56:34.778Z,100411.69
2023-09-13T22:59:02.447Z,100415.31
2023-09-13T23:01:30.194Z,100420.06
2023-09-13T23:03:59.295Z,100426.09
2023-09-13T23:06:27.057Z,100425.78
2023-09-13T23:08:56.559Z,100431.59
2023-09-13T23:11:24.473Z,100431.16
2023-09-13T23:13:53.901Z,100429.53
2023-09-13T23:16:21.866Z,100436.25
2023-09-13T23:18:49.757Z,100432.47
2023-09-13T23:21:19.622Z,100431.69
2023-09-13T23:23:48.131Z,100438.91
2023-09-13T23:26:15.732Z,100434.69
2023-09-13T23:28:43.395Z,100435.09
2023-09-13T23:31:12.721Z,100435.09
2023-09-13T23:33:41.930Z,100439.22
2023-09-13T23:36:11.117Z,100446.69
2023-09-13T23:38:41.151Z,100433.72
2023-09-13T23:41:10.439Z,100439.88
2023-09-13T23:43:38.696Z,100441.78
2023-09-13T23:46:08.037Z,100439.09
2023-09-13T23:48:37.260Z,100433.94
2023-09-13T23:51:05.895Z,100439.47
2023-09-13T23:53:36.173Z,100437.38
2023-09-13T23:56:07.147Z,100444.47
2023-09-13T23:58:35.352Z,100442.09
